Silvio Pettirossi International Airport
SGAS : now visible

Airfield :











YOU CAN JOIN US ON...

 
LOGIN :

Register | Disclaimer

   EN    FR    IT 

 









Legend :    VFR   Marginal VFR   IFR   Intensive IFR   Very Intensive IFR
Visi :
Ceiling :
>= 8 km
>= 3000ft
5 to 8 km
1000 to 3000 ft
1500m to 5 km
500 to 1000 ft
800 to 1500m
200 to 500 ft
< 800m
< 200 ft
Symbols :   Thunderstorms  Fog  Heavy snow  Heavy precipitations  Wind > 20 kt






- Airport Elevation : 292 ft
- IATA code : ASU


SGAS - Silvio Pettirossi International

CURRENT METAR :
  • 251200Z 01004KT 9999 SCT027 BKN070 28/23 Q1010

EXPIRED METARs :
  • 251130Z VRB03KT 9999 BKN027 BKN070 28/23 Q1010 REVCTSSHRA
  • 251100Z 00000KT 9999 VCTSSHRA BKN027 FEW040CB BKN070 27/23 Q1010
  • 251000Z 01003KT 9999 VCSHRA SCT027 BKN070 27/23 Q1009

TAF TAF SGAS
Valid from the 25 at 12:00 until the 26 at 12:00 UTC


250954Z 2512/2612 03005KT 9999 VCTS BKN027 FEW040CB TX32/2518Z TN221/2609Z
PROB30
TEMPO 2512/2514 15007KT 9000 -TSRA BKN027
BECMG 2515/2518 05007KT 9999 SCT027
PROB30
TEMPO 2518/2520 VRB03KT 9000 -TSRA BKN027 FEW040CB
BECMG 2522/2601 18010KT 9999 BKN027



MET'MAP, your aeronautical weather chart ! - Copyright ORBIFLY December 2007 - Disclaimer

ORBIFLY MET'MAP TEAM :

Programming & Development : Alexandra Zaïnal
Concept & original design : Baudouin d'Aumeries
Assistance for programming : Marc-Olivier Méhu
Technical & hardware support : Manuel Goepfert

Contact : metmap@orbifly.com




SOURCES & CREDITS :

   NOAA       Earth
Advisory